createdAt,value
2018-08-23T00:00:12.305Z,21.40
2018-08-23T00:02:40.296Z,21.30
2018-08-23T00:05:08.356Z,21.30
2018-08-23T00:07:36.303Z,21.30
2018-08-23T00:10:04.296Z,21.30
2018-08-23T00:13:09.005Z,21.30
2018-08-23T00:15:36.982Z,21.30
2018-08-23T00:18:05.013Z,21.30
2018-08-23T00:20:35.952Z,21.20
2018-08-23T00:23:04.443Z,21.20
2018-08-23T00:25:32.925Z,21.10
2018-08-23T00:28:00.902Z,21.10
2018-08-23T00:30:29.685Z,21.10
2018-08-23T00:32:58.680Z,21.10
2018-08-23T00:35:26.683Z,21.10
2018-08-23T00:37:54.660Z,21.10
2018-08-23T00:40:22.649Z,21.10
2018-08-23T00:42:56.242Z,21.10
2018-08-23T00:45:24.203Z,21.00
2018-08-23T00:47:52.190Z,21.00
2018-08-23T00:50:26.233Z,21.00
2018-08-23T00:52:54.627Z,21.00
2018-08-23T00:57:58.764Z,21.00
2018-08-23T01:00:31.342Z,20.90
2018-08-23T01:03:01.960Z,20.90
2018-08-23T01:05:34.900Z,20.90
2018-08-23T01:08:03.465Z,20.90
2018-08-23T01:10:31.427Z,20.80
2018-08-23T01:13:01.148Z,20.80
2018-08-23T01:15:29.800Z,20.80
2018-08-23T01:18:12.212Z,20.80
2018-08-23T01:20:41.202Z,20.80
2018-08-23T01:23:09.392Z,20.90
2018-08-23T01:25:41.128Z,20.80
2018-08-23T01:28:09.719Z,20.80
2018-08-23T01:30:38.201Z,20.80
2018-08-23T01:33:09.443Z,20.80
2018-08-23T01:35:39.374Z,20.80
2018-08-23T01:38:07.615Z,20.80
2018-08-23T01:40:35.665Z,20.80
2018-08-23T01:43:03.626Z,20.70
2018-08-23T01:45:31.603Z,20.70
2018-08-23T01:48:03.099Z,20.70
2018-08-23T01:50:31.136Z,20.70
2018-08-23T01:52:59.124Z,20.60
2018-08-23T01:55:27.130Z,20.60
2018-08-23T01:57:55.380Z,20.60
2018-08-23T02:00:24.701Z,20.50
2018-08-23T02:02:52.649Z,20.50
2018-08-23T02:05:20.699Z,20.60
2018-08-23T02:07:48.712Z,20.50
2018-08-23T02:10:16.683Z,20.50
2018-08-23T02:12:49.768Z,20.50
2018-08-23T02:15:17.767Z,20.50
2018-08-23T02:17:52.669Z,20.50
2018-08-23T02:20:21.043Z,20.50
2018-08-23T02:22:49.006Z,20.30
2018-08-23T02:25:16.957Z,20.40
2018-08-23T02:28:02.047Z,20.40
2018-08-23T02:30:49.701Z,20.40
2018-08-23T02:33:17.795Z,20.40
2018-08-23T02:36:04.683Z,20.40
2018-08-23T02:38:32.839Z,20.40
2018-08-23T02:41:00.841Z,20.40
2018-08-23T02:43:29.602Z,20.40
2018-08-23T02:45:57.565Z,20.30
2018-08-23T02:48:25.574Z,20.30
2018-08-23T02:50:53.927Z,20.30
2018-08-23T02:53:37.269Z,20.30
2018-08-23T02:56:09.272Z,20.30
2018-08-23T02:58:58.904Z,20.30
2018-08-23T03:01:28.984Z,20.30
2018-08-23T03:04:08.095Z,20.30
2018-08-23T03:07:12.560Z,20.30
2018-08-23T03:09:42.812Z,20.30
2018-08-23T03:12:17.998Z,20.30
2018-08-23T03:14:46.219Z,20.30
2018-08-23T03:17:17.470Z,20.20
2018-08-23T03:19:58.233Z,20.20
2018-08-23T03:22:26.566Z,20.20
2018-08-23T03:24:55.170Z,20.20
2018-08-23T03:27:23.170Z,20.20
2018-08-23T03:29:51.250Z,20.20
2018-08-23T03:32:19.214Z,20.20
2018-08-23T03:34:47.483Z,20.20
2018-08-23T03:37:15.764Z,20.20
2018-08-23T03:39:43.779Z,20.20
2018-08-23T03:42:11.827Z,20.20
2018-08-23T03:44:39.809Z,20.20
2018-08-23T03:47:07.784Z,20.20
2018-08-23T03:49:41.257Z,20.20
2018-08-23T03:52:09.300Z,20.20
2018-08-23T03:54:37.290Z,20.10
2018-08-23T03:57:18.669Z,20.10
2018-08-23T03:59:51.744Z,20.10
2018-08-23T04:02:20.846Z,20.00
2018-08-23T04:04:50.188Z,20.10
2018-08-23T04:07:18.544Z,20.10
2018-08-23T04:09:46.514Z,20.10
2018-08-23T04:12:14.464Z,20.20
2018-08-23T04:14:42.441Z,20.20
2018-08-23T04:17:11.093Z,20.20
2018-08-23T04:22:16.591Z,20.20
2018-08-23T04:24:48.457Z,20.30
2018-08-23T04:27:18.048Z,20.30
2018-08-23T04:29:46.508Z,20.30
2018-08-23T04:32:17.989Z,20.30
2018-08-23T04:34:46.195Z,20.30
2018-08-23T04:37:15.228Z,20.30
2018-08-23T04:39:49.618Z,20.30
2018-08-23T04:42:18.142Z,20.30
2018-08-23T04:44:51.104Z,20.30
2018-08-23T04:47:19.640Z,20.30
2018-08-23T04:49:50.608Z,20.30
2018-08-23T04:52:18.608Z,20.30
2018-08-23T04:54:47.190Z,20.30
2018-08-23T04:57:15.263Z,20.40
2018-08-23T04:59:43.368Z,20.40
2018-08-23T05:02:11.386Z,20.30
2018-08-23T05:04:42.628Z,20.30
2018-08-23T05:07:10.643Z,20.30
2018-08-23T05:09:38.623Z,20.30
2018-08-23T05:12:06.576Z,20.30
2018-08-23T05:14:34.557Z,20.40
2018-08-23T05:17:02.540Z,20.40
2018-08-23T05:19:30.496Z,20.50
2018-08-23T05:21:58.476Z,20.50
2018-08-23T05:24:26.440Z,20.50
2018-08-23T05:26:54.403Z,20.50
2018-08-23T05:29:22.722Z,20.60
2018-08-23T05:31:50.692Z,20.60
2018-08-23T05:34:18.668Z,20.60
2018-08-23T05:36:46.640Z,20.60
2018-08-23T05:39:15.026Z,20.70
2018-08-23T05:41:42.978Z,20.70
2018-08-23T05:44:16.364Z,20.80
2018-08-23T05:46:48.424Z,20.80
2018-08-23T05:49:16.372Z,20.80
2018-08-23T05:51:45.067Z,20.90
2018-08-23T05:54:13.204Z,20.90
2018-08-23T05:56:41.282Z,20.90
2018-08-23T05:59:14.920Z,21.00
2018-08-23T06:01:43.690Z,21.00
2018-08-23T06:04:11.691Z,21.10
2018-08-23T06:06:39.747Z,21.10
2018-08-23T06:09:11.532Z,21.20
2018-08-23T06:11:39.690Z,21.20
2018-08-23T06:14:07.656Z,21.30
2018-08-23T06:16:39.417Z,21.30
2018-08-23T06:19:07.424Z,21.30
2018-08-23T06:21:35.385Z,21.30
2018-08-23T06:24:07.708Z,21.40
2018-08-23T06:26:44.084Z,21.40
2018-08-23T06:29:31.106Z,21.50
2018-08-23T06:32:10.452Z,21.50
2018-08-23T06:34:47.229Z,21.60
2018-08-23T06:37:15.837Z,21.60
2018-08-23T06:39:43.838Z,21.60
2018-08-23T06:42:11.833Z,21.60
2018-08-23T06:44:55.403Z,21.70
2018-08-23T06:47:24.695Z,21.70
2018-08-23T06:49:53.668Z,21.80
2018-08-23T06:52:31.985Z,21.80
2018-08-23T06:55:00.387Z,21.80
2018-08-23T06:57:38.703Z,21.90
2018-08-23T07:00:06.934Z,21.90
2018-08-23T07:02:35.081Z,22.00
2018-08-23T07:05:03.245Z,22.00
2018-08-23T07:07:31.357Z,22.00
2018-08-23T07:09:59.514Z,22.10
2018-08-23T07:12:27.485Z,22.10
2018-08-23T07:14:55.456Z,22.20
2018-08-23T07:17:26.774Z,22.20
2018-08-23T07:19:54.962Z,22.30
2018-08-23T07:22:25.039Z,22.30
2018-08-23T07:24:54.236Z,22.40
2018-08-23T07:27:23.099Z,22.40
2018-08-23T07:29:52.561Z,22.40
2018-08-23T07:32:23.430Z,22.50
2018-08-23T07:34:57.655Z,22.50
2018-08-23T07:37:25.604Z,22.60
2018-08-23T07:39:59.074Z,22.70
2018-08-23T07:42:28.448Z,22.70
2018-08-23T07:44:57.143Z,22.70
2018-08-23T07:47:25.263Z,22.70
2018-08-23T07:49:54.616Z,22.80
2018-08-23T07:54:56.397Z,22.90
2018-08-23T07:57:24.346Z,22.90
2018-08-23T07:59:57.864Z,23.00
2018-08-23T08:02:27.288Z,23.00
2018-08-23T08:04:55.500Z,23.10
2018-08-23T08:07:32.970Z,23.10
2018-08-23T08:10:01.858Z,23.20
2018-08-23T08:12:36.259Z,23.20
2018-08-23T08:15:05.561Z,23.30
2018-08-23T08:17:34.222Z,23.30
2018-08-23T08:20:04.441Z,23.30
2018-08-23T08:22:32.445Z,23.30
2018-08-23T08:25:06.670Z,23.40
2018-08-23T08:27:34.809Z,23.40
2018-08-23T08:30:02.767Z,23.50
2018-08-23T08:32:30.740Z,23.50
2018-08-23T08:34:59.569Z,23.60
2018-08-23T08:37:28.546Z,23.60
2018-08-23T08:39:57.311Z,23.70
2018-08-23T08:42:26.512Z,23.70
2018-08-23T08:44:58.082Z,23.80
2018-08-23T08:47:26.048Z,23.80
2018-08-23T08:49:54.160Z,23.90
2018-08-23T08:52:22.126Z,24.00
2018-08-23T08:54:50.076Z,24.00
2018-08-23T08:57:18.171Z,24.10
2018-08-23T08:59:46.024Z,24.20
2018-08-23T09:02:14.158Z,24.30
2018-08-23T09:04:42.128Z,24.30
2018-08-23T09:07:10.161Z,24.30
2018-08-23T09:09:39.627Z,24.30
2018-08-23T09:12:09.850Z,24.40
2018-08-23T09:14:38.848Z,24.50
2018-08-23T09:17:23.691Z,24.50
2018-08-23T09:19:59.031Z,24.60
2018-08-23T09:22:27.014Z,24.60
2018-08-23T09:24:54.966Z,24.60
2018-08-23T09:27:23.403Z,24.60
2018-08-23T09:29:51.388Z,24.70
2018-08-23T09:32:24.915Z,24.70
2018-08-23T09:34:57.913Z,24.70
2018-08-23T09:37:26.613Z,24.80
2018-08-23T09:39:54.598Z,24.90
2018-08-23T09:42:22.582Z,25.00
2018-08-23T09:45:03.523Z,25.10
2018-08-23T09:47:31.564Z,25.10
2018-08-23T09:50:00.240Z,25.20
2018-08-23T09:52:29.377Z,25.20
2018-08-23T09:54:57.458Z,25.20
2018-08-23T09:57:26.033Z,25.20
2018-08-23T09:59:55.127Z,25.20
2018-08-23T10:03:27.326Z,25.20
2018-08-23T10:06:05.639Z,25.30
2018-08-23T10:08:39.540Z,25.30
2018-08-23T10:11:18.134Z,25.40
2018-08-23T10:13:51.493Z,25.40
2018-08-23T10:16:24.971Z,25.50
2018-08-23T10:18:56.120Z,25.60
2018-08-23T10:21:29.471Z,25.70
2018-08-23T10:24:15.547Z,25.70
2018-08-23T10:26:43.557Z,25.70
2018-08-23T10:29:11.491Z,25.70
2018-08-23T10:31:39.485Z,25.80
2018-08-23T10:34:07.480Z,25.80
2018-08-23T10:36:35.426Z,25.90
2018-08-23T10:39:03.761Z,25.90
2018-08-23T10:41:31.851Z,26.00
2018-08-23T10:43:59.851Z,26.00
2018-08-23T10:46:28.134Z,26.00
2018-08-23T10:48:56.088Z,26.00
2018-08-23T10:51:24.051Z,26.10
2018-08-23T10:53:52.036Z,26.10
2018-08-23T10:56:19.997Z,26.20
2018-08-23T10:58:48.187Z,26.30
2018-08-23T11:01:16.154Z,26.30
2018-08-23T11:03:44.108Z,26.30
2018-08-23T11:06:12.126Z,26.40
2018-08-23T11:08:40.121Z,26.40
2018-08-23T11:11:17.017Z,26.50
2018-08-23T11:13:46.130Z,26.50
2018-08-23T11:16:19.591Z,26.50
2018-08-23T11:18:53.073Z,26.60
2018-08-23T11:21:21.204Z,26.60
2018-08-23T11:23:49.158Z,26.60
2018-08-23T11:26:28.613Z,26.60
2018-08-23T11:28:56.573Z,26.70
2018-08-23T11:31:29.279Z,26.80
2018-08-23T11:33:57.261Z,26.80
2018-08-23T11:36:25.230Z,26.80
2018-08-23T11:38:53.207Z,26.90
2018-08-23T11:41:21.200Z,26.90
2018-08-23T11:43:49.583Z,27.00
2018-08-23T11:46:18.911Z,27.00
2018-08-23T11:48:47.552Z,27.00
2018-08-23T11:51:16.300Z,27.00
2018-08-23T11:53:45.002Z,27.10
2018-08-23T11:56:12.799Z,27.10
2018-08-23T11:58:42.393Z,27.20
2018-08-23T12:01:11.756Z,27.20
2018-08-23T12:03:40.344Z,27.20
2018-08-23T12:06:09.739Z,27.30
2018-08-23T12:08:37.696Z,27.30
2018-08-23T12:11:05.676Z,27.30
2018-08-23T12:13:33.834Z,27.40
2018-08-23T12:16:03.184Z,27.50
2018-08-23T12:18:35.425Z,27.50
2018-08-23T12:23:38.055Z,27.60
2018-08-23T12:26:06.069Z,27.60
2018-08-23T12:28:39.804Z,27.60
2018-08-23T12:31:07.768Z,27.70
2018-08-23T12:33:35.719Z,27.70
2018-08-23T12:36:06.379Z,27.70
2018-08-23T12:38:40.094Z,27.80
2018-08-23T12:41:13.665Z,27.90
2018-08-23T12:43:48.446Z,27.90
2018-08-23T12:46:16.785Z,28.00
2018-08-23T12:48:45.153Z,28.00
2018-08-23T12:51:13.377Z,28.20
2018-08-23T12:53:41.396Z,28.20
2018-08-23T12:56:09.364Z,28.20
2018-08-23T12:58:37.335Z,28.30
2018-08-23T13:01:05.320Z,28.40
2018-08-23T13:03:33.361Z,28.40
2018-08-23T13:06:01.271Z,28.40
2018-08-23T13:08:29.230Z,28.30
2018-08-23T13:10:57.204Z,28.30
2018-08-23T13:13:25.196Z,28.40
2018-08-23T13:15:53.183Z,28.30
2018-08-23T13:18:21.159Z,28.40
2018-08-23T13:20:49.415Z,28.40
2018-08-23T13:23:17.440Z,28.40
2018-08-23T13:25:50.852Z,28.40
2018-08-23T13:28:18.818Z,28.40
2018-08-23T13:30:46.798Z,28.40
2018-08-23T13:33:14.749Z,28.60
2018-08-23T13:35:42.722Z,28.60
2018-08-23T13:38:10.721Z,28.70
2018-08-23T13:40:38.765Z,28.80
2018-08-23T13:43:07.140Z,28.80
2018-08-23T13:45:35.124Z,28.80
2018-08-23T13:48:03.087Z,28.90
2018-08-23T13:50:31.384Z,29.00
2018-08-23T13:52:59.345Z,29.10
2018-08-23T13:55:27.364Z,29.10
2018-08-23T13:57:55.338Z,29.00
2018-08-23T14:00:28.753Z,29.00
2018-08-23T14:02:57.408Z,28.90
2018-08-23T14:05:25.432Z,28.90
2018-08-23T14:07:53.427Z,28.90
2018-08-23T14:10:21.384Z,28.90
2018-08-23T14:12:49.492Z,28.90
2018-08-23T14:15:22.977Z,28.90
2018-08-23T14:17:50.945Z,29.00
2018-08-23T14:20:18.930Z,29.00
2018-08-23T14:22:46.909Z,29.10
2018-08-23T14:25:14.911Z,29.20
2018-08-23T14:27:42.881Z,29.30
2018-08-23T14:30:10.861Z,29.40
2018-08-23T14:32:38.883Z,29.40
2018-08-23T14:35:07.231Z,29.40
2018-08-23T14:37:35.220Z,29.40
2018-08-23T14:40:03.243Z,29.40
2018-08-23T14:42:31.175Z,29.40
2018-08-23T14:44:59.144Z,29.40
2018-08-23T14:47:32.683Z,29.40
2018-08-23T14:50:00.970Z,29.30
2018-08-23T14:52:28.934Z,29.30
2018-08-23T14:54:56.896Z,29.40
2018-08-23T14:57:30.335Z,29.40
2018-08-23T14:59:58.317Z,29.50
2018-08-23T15:02:26.477Z,29.50
2018-08-23T15:04:54.431Z,29.60
2018-08-23T15:07:22.400Z,29.60
2018-08-23T15:09:50.661Z,29.50
2018-08-23T15:12:18.637Z,29.50
2018-08-23T15:14:46.619Z,29.50
2018-08-23T15:17:14.609Z,29.60
2018-08-23T15:19:42.590Z,29.60
2018-08-23T15:22:11.139Z,29.70
2018-08-23T15:24:39.261Z,29.70
2018-08-23T15:27:07.331Z,29.70
2018-08-23T15:29:35.236Z,29.70
2018-08-23T15:32:03.282Z,29.70
2018-08-23T15:34:31.247Z,29.70
2018-08-23T15:36:59.226Z,29.70
2018-08-23T15:39:27.233Z,29.70
2018-08-23T15:41:55.238Z,29.80
2018-08-23T15:44:23.229Z,29.80
2018-08-23T15:46:51.189Z,29.80
2018-08-23T15:49:19.171Z,29.80
2018-08-23T15:51:47.161Z,29.80
2018-08-23T15:54:16.997Z,29.90
2018-08-23T15:56:44.999Z,29.90
2018-08-23T15:59:13.018Z,30.00
2018-08-23T16:01:41.068Z,30.00
2018-08-23T16:04:09.181Z,30.00
2018-08-23T16:06:37.147Z,30.00
2018-08-23T16:09:09.568Z,30.00
2018-08-23T16:11:37.936Z,30.00
2018-08-23T16:14:06.536Z,30.00
2018-08-23T16:16:40.106Z,30.00
2018-08-23T16:19:17.382Z,30.00
2018-08-23T16:21:49.632Z,30.00
2018-08-23T16:24:17.651Z,29.90
2018-08-23T16:26:51.504Z,29.90
2018-08-23T16:29:19.490Z,29.90
2018-08-23T16:31:47.462Z,30.00
2018-08-23T16:34:15.447Z,29.90
2018-08-23T16:36:43.452Z,29.90
2018-08-23T16:39:11.454Z,29.80
2018-08-23T16:41:39.418Z,29.80
2018-08-23T16:44:08.519Z,29.70
2018-08-23T16:46:36.505Z,29.70
2018-08-23T16:49:04.472Z,29.70
2018-08-23T16:51:32.468Z,29.70
2018-08-23T16:54:00.468Z,29.70
2018-08-23T16:56:28.466Z,29.60
2018-08-23T16:58:56.422Z,29.60
2018-08-23T17:01:24.398Z,29.60
2018-08-23T17:03:56.628Z,29.60
2018-08-23T17:06:25.888Z,29.60
2018-08-23T17:08:54.281Z,29.60
2018-08-23T17:11:22.270Z,29.60
2018-08-23T17:13:50.254Z,29.60
2018-08-23T17:16:23.759Z,29.60
2018-08-23T17:18:52.399Z,29.60
2018-08-23T17:21:20.371Z,29.60
2018-08-23T17:23:48.362Z,29.70
2018-08-23T17:26:16.347Z,29.70
2018-08-23T17:28:44.339Z,29.60
2018-08-23T17:31:12.348Z,29.70
2018-08-23T17:33:40.305Z,29.60
2018-08-23T17:36:08.282Z,29.60
2018-08-23T17:38:36.266Z,29.50
2018-08-23T17:41:04.249Z,29.40
2018-08-23T17:43:32.210Z,29.40
2018-08-23T17:46:00.200Z,29.40
2018-08-23T17:48:28.170Z,29.40
2018-08-23T17:53:30.428Z,29.30
2018-08-23T17:55:58.416Z,29.20
2018-08-23T17:58:26.361Z,29.20
2018-08-23T18:00:54.346Z,29.10
2018-08-23T18:03:22.320Z,29.10
2018-08-23T18:05:50.290Z,29.10
2018-08-23T18:08:18.317Z,29.10
2018-08-23T18:10:46.304Z,29.00
2018-08-23T18:13:14.280Z,29.00
2018-08-23T18:15:47.716Z,29.00
2018-08-23T18:18:15.698Z,29.00
2018-08-23T18:20:43.656Z,29.00
2018-08-23T18:23:11.624Z,29.00
2018-08-23T18:25:39.683Z,28.90
2018-08-23T18:28:07.571Z,28.90
2018-08-23T18:30:35.554Z,28.90
2018-08-23T18:33:03.526Z,28.80
2018-08-23T18:35:31.514Z,28.80
2018-08-23T18:37:59.537Z,28.80
2018-08-23T18:40:27.499Z,28.70
2018-08-23T18:42:55.494Z,28.70
2018-08-23T18:45:23.732Z,28.60
2018-08-23T18:47:51.700Z,28.60
2018-08-23T18:50:19.691Z,28.60
2018-08-23T18:52:47.652Z,28.50
2018-08-23T18:55:15.652Z,28.50
2018-08-23T18:57:43.623Z,28.40
2018-08-23T19:00:11.743Z,28.40
2018-08-23T19:02:39.572Z,28.40
2018-08-23T19:05:07.560Z,28.30
2018-08-23T19:07:40.462Z,28.30
2018-08-23T19:10:08.708Z,28.30
2018-08-23T19:12:36.643Z,28.20
2018-08-23T19:15:05.055Z,28.20
2018-08-23T19:17:35.840Z,28.20
2018-08-23T19:20:03.940Z,28.10
2018-08-23T19:22:32.242Z,28.10
2018-08-23T19:25:00.471Z,28.10
2018-08-23T19:27:28.681Z,28.00
2018-08-23T19:29:56.752Z,27.90
2018-08-23T19:32:24.799Z,27.90
2018-08-23T19:34:53.019Z,27.80
2018-08-23T19:37:21.074Z,27.70
2018-08-23T19:39:49.050Z,27.70
2018-08-23T19:42:17.060Z,27.60
2018-08-23T19:44:50.556Z,27.50
2018-08-23T19:47:23.989Z,27.50
2018-08-23T19:49:54.107Z,27.60
2018-08-23T19:52:22.666Z,27.50
2018-08-23T19:54:51.068Z,27.50
2018-08-23T20:00:03.483Z,27.60
2018-08-23T20:02:31.544Z,27.60
2018-08-23T20:04:59.530Z,27.60
2018-08-23T20:07:27.556Z,27.50
2018-08-23T20:09:55.551Z,27.50
2018-08-23T20:12:23.580Z,27.50
2018-08-23T20:14:51.504Z,27.50
2018-08-23T20:17:19.502Z,27.50
2018-08-23T20:19:47.485Z,27.40
2018-08-23T20:22:15.434Z,27.40
2018-08-23T20:24:43.432Z,27.40
2018-08-23T20:27:11.421Z,27.40
2018-08-23T20:29:39.373Z,27.30
2018-08-23T20:32:07.374Z,27.30
2018-08-23T20:34:35.306Z,27.30
2018-08-23T20:37:03.309Z,27.30
2018-08-23T20:39:31.388Z,27.30
2018-08-23T20:41:59.302Z,27.20
2018-08-23T20:44:27.289Z,27.10
2018-08-23T20:46:55.758Z,27.10
2018-08-23T20:49:23.778Z,27.10
2018-08-23T20:51:51.762Z,27.10
2018-08-23T20:54:19.938Z,27.00
2018-08-23T20:56:48.113Z,27.00
2018-08-23T20:59:16.127Z,27.00
2018-08-23T21:01:44.574Z,27.00
2018-08-23T21:04:12.756Z,27.00
2018-08-23T21:06:41.045Z,27.00
2018-08-23T21:09:11.277Z,27.00
2018-08-23T21:11:39.924Z,26.90
2018-08-23T21:14:08.766Z,26.90
2018-08-23T21:16:36.902Z,26.90
2018-08-23T21:19:04.936Z,26.80
2018-08-23T21:21:32.924Z,26.70
2018-08-23T21:24:01.255Z,26.70
2018-08-23T21:26:29.451Z,26.80
2018-08-23T21:28:58.164Z,26.80
2018-08-23T21:31:26.381Z,26.80
2018-08-23T21:33:54.399Z,26.80
2018-08-23T21:36:22.808Z,26.80
2018-08-23T21:38:51.348Z,26.80
2018-08-23T21:41:19.675Z,26.70
2018-08-23T21:43:47.665Z,26.70
2018-08-23T21:46:15.642Z,26.70
2018-08-23T21:48:43.625Z,26.70
2018-08-23T21:51:12.367Z,26.70
2018-08-23T21:53:40.700Z,26.70
2018-08-23T21:56:08.711Z,26.70
2018-08-23T21:58:36.669Z,26.70
2018-08-23T22:01:05.679Z,26.70
2018-08-23T22:03:33.676Z,26.60
2018-08-23T22:06:01.643Z,26.60
2018-08-23T22:08:29.674Z,26.60
2018-08-23T22:10:57.701Z,26.60
2018-08-23T22:13:25.726Z,26.50
2018-08-23T22:15:53.837Z,26.50
2018-08-23T22:18:21.797Z,26.40
2018-08-23T22:20:49.877Z,26.40
2018-08-23T22:23:17.988Z,26.30
2018-08-23T22:25:45.951Z,26.30
2018-08-23T22:28:14.034Z,26.30
2018-08-23T22:30:42.250Z,26.30
2018-08-23T22:33:11.526Z,26.30
2018-08-23T22:35:39.523Z,26.30
2018-08-23T22:38:07.831Z,26.20
2018-08-23T22:40:36.078Z,26.20
2018-08-23T22:43:04.080Z,26.20
2018-08-23T22:45:32.062Z,26.20
2018-08-23T22:48:00.043Z,26.20
2018-08-23T22:50:28.082Z,26.20
2018-08-23T22:52:56.392Z,26.20
2018-08-23T22:55:24.343Z,26.10
2018-08-23T22:57:52.363Z,26.10
2018-08-23T23:00:25.046Z,26.10
2018-08-23T23:02:53.033Z,26.10
2018-08-23T23:05:21.060Z,26.10
2018-08-23T23:07:48.976Z,26.10
2018-08-23T23:10:16.960Z,26.10
2018-08-23T23:12:44.920Z,25.90
2018-08-23T23:15:18.298Z,25.80
2018-08-23T23:17:46.256Z,25.70
2018-08-23T23:20:14.213Z,25.70
2018-08-23T23:22:45.581Z,25.70
2018-08-23T23:25:13.552Z,25.70
2018-08-23T23:27:41.548Z,25.70
2018-08-23T23:30:09.540Z,25.80
2018-08-23T23:32:37.508Z,25.80
2018-08-23T23:35:05.592Z,25.80
2018-08-23T23:37:33.912Z,25.80
2018-08-23T23:40:01.873Z,25.80
2018-08-23T23:42:29.830Z,25.80
2018-08-23T23:44:58.134Z,25.70
2018-08-23T23:47:26.135Z,25.70
2018-08-23T23:49:54.185Z,25.70
2018-08-23T23:52:22.155Z,25.70
2018-08-23T23:54:50.126Z,25.60
2018-08-23T23:57:18.123Z,25.60
2018-08-23T23:59:46.086Z,25.50
